Time;durP1;ratioP1;P1;durP2;ratioP2;P2;SDS_P1;SDS_P2;PMS_P1;PMS_P2;Temp;Humidity;BMP_temperature;BMP_pressure;BME280_temperature;BME280_humidity;BME280_pressure;Samples;Min_cycle;Max_cycle;Signal;HPM_P1;HPM_P2
2023/05/28 00:01:01;;;;;;;2.85;2.55;;;24.50;50.60;;;;;;5075113;28;20098;-63
2023/05/28 00:03:31;;;;;;;3.35;3.05;;;24.50;50.60;;;;;;5074045;28;20055;-62
2023/05/28 00:05:59;;;;;;;2.45;2.25;;;24.50;50.60;;;;;;5075019;28;20048;-62
2023/05/28 00:08:26;;;;;;;3.30;2.85;;;24.40;50.60;;;;;;5062136;28;20505;-64
2023/05/28 00:10:59;;;;;;;3.13;2.83;;;24.40;50.60;;;;;;5054717;28;20102;-64
2023/05/28 00:13:30;;;;;;;2.60;2.40;;;24.40;50.60;;;;;;5055168;28;20497;-65
2023/05/28 00:15:57;;;;;;;3.13;2.80;;;24.40;50.60;;;;;;5054105;28;20045;-63
2023/05/28 00:18:28;;;;;;;3.17;2.83;;;24.40;50.60;;;;;;5054775;28;20053;-60
2023/05/28 00:20:55;;;;;;;2.63;2.40;;;24.50;50.60;;;;;;5054713;28;20049;-60
2023/05/28 00:23:22;;;;;;;3.58;2.60;;;24.50;50.60;;;;;;5054768;28;20404;-60
2023/05/28 00:25:50;;;;;;;6.40;2.50;;;24.40;50.50;;;;;;5055050;28;20409;-61
2023/05/28 00:28:17;;;;;;;3.55;2.40;;;24.50;50.50;;;;;;5054679;28;20052;-60
2023/05/28 00:30:44;;;;;;;2.72;2.28;;;24.40;50.50;;;;;;5054481;28;20099;-61
2023/05/28 00:33:11;;;;;;;2.90;2.58;;;24.40;50.50;;;;;;5055004;28;20064;-61
2023/05/28 00:35:39;;;;;;;2.50;2.10;;;24.40;50.50;;;;;;5054843;28;20194;-60
2023/05/28 00:38:06;;;;;;;2.40;2.20;;;24.40;50.50;;;;;;5054600;28;20094;-60
2023/05/28 00:40:33;;;;;;;3.47;3.03;;;24.40;50.50;;;;;;5054346;28;20049;-60
2023/05/28 00:43:00;;;;;;;3.08;2.78;;;24.40;50.60;;;;;;5054482;28;20131;-60
2023/05/28 00:45:27;;;;;;;2.80;2.60;;;24.30;50.60;;;;;;5054613;28;20098;-60
2023/05/28 00:47:54;;;;;;;3.17;2.85;;;24.40;50.60;;;;;;5054341;28;20103;-61
2023/05/28 00:50:22;;;;;;;2.80;2.40;;;24.40;51.10;;;;;;5054312;28;20049;-60
2023/05/28 00:52:51;;;;;;;4.85;2.92;;;24.30;50.60;;;;;;5063948;28;20059;-60
2023/05/28 00:55:19;;;;;;;4.00;2.40;;;24.30;50.60;;;;;;5074529;28;20098;-60
2023/05/28 00:57:48;;;;;;;4.18;2.92;;;24.30;50.60;;;;;;5074379;28;20102;-60
2023/05/28 01:00:16;;;;;;;3.90;3.05;;;24.30;50.60;;;;;;5073783;28;20045;-60
2023/05/28 01:02:44;;;;;;;3.15;2.75;;;24.30;50.70;;;;;;5074135;28;20051;-60
2023/05/28 01:05:11;;;;;;;3.13;2.83;;;24.30;50.70;;;;;;5073895;28;20084;-60
2023/05/28 01:07:38;;;;;;;2.65;2.45;;;24.30;50.70;;;;;;5072994;28;20036;-60
2023/05/28 01:10:06;;;;;;;3.05;2.40;;;24.30;50.70;;;;;;5073867;28;20044;-60
2023/05/28 01:12:35;;;;;;;2.75;2.53;;;24.30;50.70;;;;;;5073798;28;20583;-60
2023/05/28 01:15:02;;;;;;;3.53;2.65;;;24.30;50.70;;;;;;5073698;28;20512;-60
2023/05/28 01:17:30;;;;;;;2.50;2.30;;;24.30;50.80;;;;;;5074091;28;20496;-60
2023/05/28 01:20:01;;;;;;;2.70;2.50;;;24.30;50.80;;;;;;5073486;28;20047;-60
2023/05/28 01:22:33;;;;;;;2.70;2.40;;;24.30;50.80;;;;;;5073228;28;20048;-60
2023/05/28 01:25:01;;;;;;;2.80;2.60;;;24.30;50.80;;;;;;5073622;28;20054;-60
2023/05/28 01:27:28;;;;;;;3.40;2.85;;;24.20;50.80;;;;;;5073168;28;20060;-60
2023/05/28 01:29:56;;;;;;;3.05;2.78;;;24.20;50.80;;;;;;5073540;28;20485;-60
2023/05/28 01:32:24;;;;;;;3.42;2.60;;;24.20;50.80;;;;;;5073554;28;20044;-60
2023/05/28 01:34:51;;;;;;;2.63;2.25;;;24.20;50.90;;;;;;5073323;28;20131;-60
2023/05/28 01:37:19;;;;;;;2.90;2.70;;;24.20;50.90;;;;;;5072677;28;20405;-60
2023/05/28 01:39:50;;;;;;;3.38;2.72;;;24.10;50.80;;;;;;5073437;28;20041;-60
2023/05/28 01:42:17;;;;;;;2.40;2.28;;;24.20;50.90;;;;;;5072856;28;20049;-60
2023/05/28 01:44:46;;;;;;;2.58;2.15;;;24.20;51.00;;;;;;5072993;28;20052;-60
2023/05/28 01:47:14;;;;;;;2.55;2.35;;;24.20;51.00;;;;;;5073680;28;20400;-60
2023/05/28 01:49:42;;;;;;;2.72;2.53;;;24.20;51.00;;;;;;5073288;28;20481;-60
2023/05/28 01:52:09;;;;;;;3.30;2.45;;;24.20;51.10;;;;;;5072037;28;20048;-60
2023/05/28 01:54:37;;;;;;;3.17;2.28;;;24.20;51.10;;;;;;5072969;28;20162;-60
2023/05/28 01:57:04;;;;;;;2.65;2.30;;;24.20;51.10;;;;;;5073486;28;20057;-60
2023/05/28 01:59:32;;;;;;;3.35;2.35;;;24.10;51.10;;;;;;5088726;28;20056;-60
2023/05/28 02:01:59;;;;;;;2.80;2.30;;;24.10;51.10;;;;;;5073035;28;20079;-60
2023/05/28 02:04:26;;;;;;;4.25;3.08;;;24.10;51.10;;;;;;5073044;28;20051;-60
2023/05/28 02:06:55;;;;;;;3.25;2.20;;;24.10;51.20;;;;;;5071950;28;20170;-60
2023/05/28 02:09:22;;;;;;;3.13;2.55;;;24.10;51.20;;;;;;5072927;28;20049;-60
2023/05/28 02:11:49;;;;;;;2.95;2.50;;;24.10;51.20;;;;;;5073044;28;20527;-60
2023/05/28 02:14:17;;;;;;;2.30;2.20;;;24.10;51.20;;;;;;5072469;28;20052;-60
2023/05/28 02:16:48;;;;;;;2.78;2.30;;;24.10;51.20;;;;;;5073081;28;20044;-60
2023/05/28 02:19:16;;;;;;;3.10;2.65;;;24.10;51.10;;;;;;5072835;28;20053;-61
2023/05/28 02:21:43;;;;;;;2.65;2.10;;;24.10;51.10;;;;;;5073114;28;20124;-60
2023/05/28 02:24:10;;;;;;;2.90;2.35;;;24.10;51.10;;;;;;5073232;28;20052;-60
2023/05/28 02:26:37;;;;;;;2.28;2.17;;;24.10;51.00;;;;;;5072944;28;20048;-60
2023/05/28 02:29:05;;;;;;;3.47;2.70;;;24.10;51.00;;;;;;5072738;28;20056;-60
2023/05/28 02:31:32;;;;;;;2.45;2.25;;;24.10;51.00;;;;;;5072769;28;20045;-60
2023/05/28 02:33:59;;;;;;;3.17;2.88;;;24.10;51.00;;;;;;5075069;28;20048;-60
2023/05/28 02:36:27;;;;;;;4.07;2.88;;;24.10;50.90;;;;;;5076893;28;20049;-60
2023/05/28 02:38:54;;;;;;;2.40;2.20;;;24.10;51.00;;;;;;5076697;28;20083;-60
2023/05/28 02:41:21;;;;;;;2.85;2.42;;;24.10;51.00;;;;;;5076463;28;20044;-60
2023/05/28 02:43:48;;;;;;;2.35;2.15;;;24.10;51.00;;;;;;5077039;28;20052;-60
2023/05/28 02:46:15;;;;;;;3.05;2.55;;;24.10;51.00;;;;;;5076603;28;20056;-62
2023/05/28 02:48:44;;;;;;;2.67;2.47;;;24.10;51.00;;;;;;5076910;28;20051;-62
2023/05/28 02:51:11;;;;;;;2.50;2.30;;;24.10;51.00;;;;;;5076513;28;20094;-62
2023/05/28 02:53:39;;;;;;;3.40;2.28;;;24.00;51.00;;;;;;5076712;28;20381;-62
2023/05/28 02:56:06;;;;;;;2.80;2.10;;;24.00;51.00;;;;;;5076316;28;20045;-60
2023/05/28 02:58:33;;;;;;;2.97;2.58;;;24.00;51.00;;;;;;5076279;28;20049;-60
2023/05/28 03:01:00;;;;;;;2.30;2.10;;;24.00;51.00;;;;;;5072952;28;20056;-60
2023/05/28 03:03:27;;;;;;;3.03;2.45;;;24.00;51.00;;;;;;5056650;28;20049;-60
2023/05/28 03:05:56;;;;;;;3.17;2.55;;;24.00;51.00;;;;;;5056474;28;20049;-61
2023/05/28 03:08:23;;;;;;;3.13;2.83;;;24.00;51.50;;;;;;5056283;28;20041;-61
2023/05/28 03:10:51;;;;;;;3.72;2.55;;;24.10;51.10;;;;;;5056067;28;20055;-61
2023/05/28 03:13:19;;;;;;;2.47;2.20;;;24.00;51.00;;;;;;5056074;28;20049;-61
2023/05/28 03:15:46;;;;;;;2.63;2.33;;;24.00;51.00;;;;;;5056116;28;20091;-61
2023/05/28 03:18:13;;;;;;;2.47;2.17;;;24.00;51.00;;;;;;5055875;28;20092;-61
2023/05/28 03:20:41;;;;;;;2.78;2.47;;;24.00;51.00;;;;;;5055927;28;20493;-61
2023/05/28 03:23:08;;;;;;;3.25;2.78;;;24.00;51.00;;;;;;5056017;28;20132;-61
2023/05/28 03:25:35;;;;;;;2.33;2.13;;;24.00;51.00;;;;;;5056081;28;20094;-61
2023/05/28 03:28:02;;;;;;;2.28;1.90;;;24.00;51.00;;;;;;5056285;28;20053;-61
2023/05/28 03:30:29;;;;;;;2.40;2.00;;;24.00;51.00;;;;;;5056094;28;20045;-61
2023/05/28 03:32:56;;;;;;;3.15;2.47;;;24.00;51.00;;;;;;5055992;28;20052;-61
2023/05/28 03:35:24;;;;;;;2.47;2.28;;;24.10;51.00;;;;;;5055696;28;20064;-63
2023/05/28 03:37:51;;;;;;;4.28;2.63;;;24.00;50.90;;;;;;5056058;28;20049;-61
2023/05/28 03:40:18;;;;;;;3.80;2.45;;;24.10;51.20;;;;;;5055121;28;20045;-61
2023/05/28 03:42:45;;;;;;;2.60;2.40;;;24.10;51.00;;;;;;5055532;28;20053;-61
2023/05/28 03:45:12;;;;;;;2.50;2.30;;;24.10;50.90;;;;;;5054228;28;20045;-61
2023/05/28 03:47:39;;;;;;;2.70;2.22;;;24.10;51.00;;;;;;5055556;28;20057;-61
2023/05/28 03:50:07;;;;;;;2.60;2.40;;;24.10;50.90;;;;;;5055412;28;20060;-61
2023/05/28 03:52:34;;;;;;;3.97;2.35;;;24.10;51.00;;;;;;5055314;28;20049;-61
2023/05/28 03:55:02;;;;;;;2.22;1.90;;;24.10;50.90;;;;;;5072176;28;20048;-61
2023/05/28 03:57:29;;;;;;;2.17;1.98;;;24.10;50.90;;;;;;5075252;28;20059;-61
2023/05/28 03:59:57;;;;;;;4.15;2.28;;;24.10;50.90;;;;;;5074959;28;20101;-61
2023/05/28 04:02:24;;;;;;;2.65;2.33;;;24.20;50.90;;;;;;5075004;28;20052;-61
2023/05/28 04:04:51;;;;;;;2.78;2.45;;;24.20;50.80;;;;;;5073777;28;20052;-61
2023/05/28 04:07:19;;;;;;;2.33;2.13;;;24.20;50.80;;;;;;5075391;28;20053;-61
2023/05/28 04:09:47;;;;;;;3.50;2.72;;;24.20;50.70;;;;;;5075429;28;20048;-61
2023/05/28 04:12:14;;;;;;;2.10;2.00;;;24.30;50.70;;;;;;5074904;28;20059;-61
2023/05/28 04:14:41;;;;;;;2.38;2.17;;;24.30;50.60;;;;;;5074395;28;20064;-61
2023/05/28 04:17:12;;;;;;;2.38;2.17;;;24.30;50.60;;;;;;5075309;28;20040;-61
2023/05/28 04:19:40;;;;;;;2.05;1.92;;;24.30;50.50;;;;;;5073607;28;20535;-61
2023/05/28 04:22:08;;;;;;;2.10;1.98;;;24.40;50.50;;;;;;5074979;28;20048;-61
2023/05/28 04:24:35;;;;;;;2.50;2.30;;;24.40;50.40;;;;;;5072981;28;20063;-61
2023/05/28 04:27:02;;;;;;;2.33;2.13;;;24.50;50.30;;;;;;5075114;28;20048;-61
2023/05/28 04:29:31;;;;;;;2.47;2.28;;;24.50;50.20;;;;;;5075039;28;20127;-61
2023/05/28 04:31:58;;;;;;;2.30;2.10;;;24.50;50.10;;;;;;5074577;28;20051;-61
2023/05/28 04:34:26;;;;;;;1.95;1.85;;;24.50;50.00;;;;;;5074580;28;20044;-61
2023/05/28 04:36:53;;;;;;;2.35;2.05;;;24.60;49.90;;;;;;5074278;28;20048;-61
2023/05/28 04:39:24;;;;;;;2.25;2.08;;;24.60;49.70;;;;;;5074336;28;20519;-61
2023/05/28 04:41:53;;;;;;;2.65;2.38;;;24.60;49.60;;;;;;5074399;28;20056;-61
2023/05/28 04:44:25;;;;;;;2.60;2.40;;;24.70;49.50;;;;;;5074698;28;20052;-61
2023/05/28 04:46:53;;;;;;;3.63;2.17;;;24.70;49.30;;;;;;5074618;28;20281;-61
2023/05/28 04:49:20;;;;;;;2.47;2.28;;;24.70;49.20;;;;;;5074319;28;20455;-61
2023/05/28 04:51:47;;;;;;;3.20;2.67;;;24.70;49.00;;;;;;5074671;28;20101;-61
2023/05/28 04:54:14;;;;;;;2.80;2.47;;;24.80;48.90;;;;;;5089865;28;20106;-61
2023/05/28 04:56:41;;;;;;;2.55;2.22;;;24.80;48.80;;;;;;5073578;28;20133;-61
2023/05/28 04:59:09;;;;;;;2.53;2.33;;;24.80;48.60;;;;;;5074269;28;20052;-61
2023/05/28 05:01:38;;;;;;;6.28;2.72;;;24.80;48.40;;;;;;5073812;28;20044;-61
2023/05/28 05:04:06;;;;;;;2.72;2.05;;;24.90;48.30;;;;;;5074022;28;20389;-61
2023/05/28 05:06:34;;;;;;;2.88;2.05;;;24.90;48.10;;;;;;5073363;28;20056;-61
2023/05/28 05:09:01;;;;;;;3.13;2.45;;;24.90;48.00;;;;;;5073949;28;20049;-61
2023/05/28 05:11:29;;;;;;;2.63;2.22;;;24.90;47.70;;;;;;5074218;28;20049;-61
2023/05/28 05:13:56;;;;;;;2.47;2.00;;;24.90;47.50;;;;;;5073842;28;20109;-61
2023/05/28 05:16:24;;;;;;;2.58;2.22;;;25.00;47.40;;;;;;5074035;28;20045;-61
2023/05/28 05:18:51;;;;;;;4.05;2.88;;;25.00;47.10;;;;;;5074035;28;20053;-61
2023/05/28 05:21:18;;;;;;;2.97;2.67;;;25.10;46.90;;;;;;5073488;28;20048;-61
2023/05/28 05:23:45;;;;;;;2.67;2.25;;;25.10;46.70;;;;;;5073904;28;20044;-61
2023/05/28 05:26:12;;;;;;;2.67;2.38;;;25.10;46.40;;;;;;5073869;28;20412;-61
2023/05/28 05:28:41;;;;;;;2.35;2.13;;;25.10;46.30;;;;;;5073125;28;20044;-61
2023/05/28 05:31:11;;;;;;;4.85;2.55;;;25.10;46.10;;;;;;5072971;28;20080;-61
2023/05/28 05:33:40;;;;;;;5.13;2.30;;;25.20;46.00;;;;;;5072912;28;20084;-61
2023/05/28 05:36:08;;;;;;;3.28;2.33;;;25.20;46.00;;;;;;5073372;28;20484;-61
2023/05/28 05:38:36;;;;;;;3.05;2.53;;;25.20;45.80;;;;;;5073026;28;20048;-61
2023/05/28 05:41:03;;;;;;;2.72;2.10;;;25.20;45.60;;;;;;5073603;28;20041;-61
2023/05/28 05:43:30;;;;;;;2.75;2.50;;;25.20;45.40;;;;;;5070862;28;20049;-61
2023/05/28 05:45:57;;;;;;;4.35;2.55;;;25.30;45.40;;;;;;5088134;28;20044;-61
2023/05/28 05:48:28;;;;;;;2.22;2.00;;;25.30;45.20;;;;;;5074098;28;20110;-61
2023/05/28 05:50:55;;;;;;;4.05;2.70;;;25.30;45.00;;;;;;5086644;28;20047;-61
2023/05/28 05:53:23;;;;;;;3.20;2.42;;;25.30;45.00;;;;;;5093754;28;20052;-61
2023/05/28 05:55:51;;;;;;;3.40;2.75;;;25.30;45.00;;;;;;5079292;28;20041;-61
2023/05/28 05:58:18;;;;;;;2.83;2.28;;;25.30;45.00;;;;;;5072743;28;20131;-61
2023/05/28 06:00:47;;;;;;;3.70;2.05;;;25.40;45.10;;;;;;5081225;28;20040;-61
2023/05/28 06:03:14;;;;;;;2.75;2.33;;;25.40;44.80;;;;;;5073066;28;20051;-61
2023/05/28 06:05:42;;;;;;;2.33;1.83;;;25.40;44.80;;;;;;5072029;28;20055;-61
2023/05/28 06:08:09;;;;;;;2.17;1.92;;;25.40;44.70;;;;;;5072035;28;20052;-61
2023/05/28 06:10:37;;;;;;;2.90;2.20;;;25.40;44.60;;;;;;5070357;28;20044;-66
2023/05/28 06:13:04;;;;;;;6.35;2.55;;;25.40;44.50;;;;;;5070758;28;20072;-67
2023/05/28 06:15:31;;;;;;;2.47;2.20;;;25.40;44.30;;;;;;5078380;28;20097;-66
2023/05/28 06:17:59;;;;;;;3.35;2.38;;;25.40;44.30;;;;;;5073630;28;20066;-66
2023/05/28 06:20:28;;;;;;;4.30;1.98;;;25.50;44.30;;;;;;5071625;28;20106;-63
2023/05/28 06:22:55;;;;;;;2.10;1.90;;;25.50;44.40;;;;;;5089512;28;20476;-67
2023/05/28 06:25:23;;;;;;;4.75;2.72;;;25.50;44.30;;;;;;5070661;28;20106;-66
2023/05/28 06:27:51;;;;;;;2.78;2.20;;;25.50;43.70;;;;;;5071883;28;20489;-66
2023/05/28 06:30:18;;;;;;;2.28;2.08;;;25.50;43.70;;;;;;5079340;28;20052;-67
2023/05/28 06:32:45;;;;;;;3.05;2.08;;;25.50;43.90;;;;;;5072845;28;20048;-66
2023/05/28 06:35:13;;;;;;;2.22;2.03;;;25.50;43.90;;;;;;5069937;28;20047;-67
2023/05/28 06:37:40;;;;;;;4.30;1.92;;;25.50;43.90;;;;;;5066127;28;20296;-69
2023/05/28 06:40:10;;;;;;;8.98;2.70;;;25.50;43.60;;;;;;5069491;28;20079;-63
2023/05/28 06:42:38;;;;;;;;;;;25.50;43.00;;;;;;5064387;28;20059;-67
2023/05/28 06:45:06;;;;;;;9.10;3.65;;;25.50;46.60;;;;;;5068904;28;19920;-69
2023/05/28 06:47:33;;;;;;;7.05;2.60;;;25.50;46.10;;;;;;5071056;28;20552;-66
2023/05/28 06:50:01;;;;;;;8.88;2.20;;;25.50;44.90;;;;;;5070699;28;20055;-78
2023/05/28 06:52:28;;;;;;;10.93;2.72;;;25.50;44.70;;;;;;5080627;28;20044;-69
2023/05/28 06:54:55;;;;;;;6.95;2.40;;;25.60;45.00;;;;;;5069045;28;20500;-67
2023/05/28 06:57:22;;;;;;;5.32;2.53;;;25.60;44.60;;;;;;5075909;28;20139;-68
2023/05/28 06:59:50;;;;;;;7.15;2.22;;;25.60;44.20;;;;;;5070220;28;20056;-66
2023/05/28 07:02:17;;;;;;;5.68;2.83;;;25.60;43.80;;;;;;5079452;28;20090;-68
2023/05/28 07:04:44;;;;;;;5.13;2.60;;;25.70;43.30;;;;;;5070966;28;20045;-67
2023/05/28 07:07:12;;;;;;;6.72;2.40;;;25.70;43.50;;;;;;5071724;28;20403;-68
2023/05/28 07:09:39;;;;;;;6.60;2.60;;;25.70;43.40;;;;;;5068791;28;20040;-66
2023/05/28 07:12:06;;;;;;;5.22;2.50;;;25.70;43.10;;;;;;5069061;28;20506;-65
2023/05/28 07:14:34;;;;;;;2.65;2.10;;;25.70;43.00;;;;;;5065866;28;20455;-65
2023/05/28 07:17:01;;;;;;;1.83;1.73;;;25.70;42.60;;;;;;5067991;28;20040;-66
2023/05/28 07:19:28;;;;;;;2.97;2.00;;;25.70;42.90;;;;;;5069230;28;20048;-66
2023/05/28 07:21:55;;;;;;;4.55;2.22;;;25.80;43.10;;;;;;5075295;28;20442;-66
2023/05/28 07:24:23;;;;;;;5.63;2.35;;;25.80;43.20;;;;;;5074849;28;20117;-69
2023/05/28 07:26:50;;;;;;;2.60;2.22;;;25.80;43.20;;;;;;5073518;28;20093;-69
2023/05/28 07:29:18;;;;;;;7.85;2.55;;;25.90;42.80;;;;;;5075306;28;20066;-66
2023/05/28 07:34:13;;;;;;;5.47;2.47;;;25.90;45.00;;;;;;5072956;28;21489;-69
2023/05/28 07:36:40;;;;;;;3.42;2.40;;;26.00;47.50;;;;;;5071046;28;20040;-67
2023/05/28 07:39:08;;;;;;;3.40;2.60;;;26.00;47.30;;;;;;5073411;28;20052;-73
2023/05/28 07:41:35;;;;;;;5.45;2.53;;;26.10;44.30;;;;;;5055577;28;20170;-71
2023/05/28 07:44:02;;;;;;;4.60;2.40;;;26.10;44.00;;;;;;5072233;28;20049;-70
2023/05/28 07:46:29;;;;;;;5.35;2.53;;;26.10;46.20;;;;;;5073549;28;20045;-70
2023/05/28 07:48:57;;;;;;;4.85;2.70;;;26.10;45.80;;;;;;5055734;28;20045;-75
2023/05/28 07:51:26;;;;;;;3.42;2.00;;;26.10;43.50;;;;;;5072472;28;20044;-75
2023/05/28 07:53:53;;;;;;;5.05;2.13;;;26.10;43.70;;;;;;5077149;28;20056;-70
2023/05/28 07:56:24;;;;;;;6.45;2.63;;;26.10;43.40;;;;;;5074829;28;20123;-69
2023/05/28 07:58:51;;;;;;;3.13;1.95;;;26.20;43.30;;;;;;5075034;28;20113;-70
2023/05/28 08:01:18;;;;;;;4.70;2.33;;;26.20;43.00;;;;;;5074841;28;20132;-69
2023/05/28 08:03:50;;;;;;;2.42;2.22;;;26.20;42.90;;;;;;5075640;28;20048;-71
2023/05/28 08:06:18;;;;;;;2.72;2.15;;;26.20;42.60;;;;;;5074414;28;20124;-71
2023/05/28 08:08:45;;;;;;;6.75;2.28;;;26.20;42.50;;;;;;5074264;28;20517;-72
2023/05/28 08:11:14;;;;;;;4.70;2.83;;;26.20;42.40;;;;;;5073723;28;20048;-67
2023/05/28 08:13:41;;;;;;;6.50;2.42;;;26.30;43.60;;;;;;5075244;28;20106;-67
2023/05/28 08:16:11;;;;;;;2.45;1.90;;;26.30;45.20;;;;;;5072525;28;20497;-66
2023/05/28 08:18:39;;;;;;;4.50;1.88;;;26.30;45.90;;;;;;5074830;28;20558;-67
2023/05/28 08:21:07;;;;;;;4.35;2.55;;;26.30;45.00;;;;;;5073364;28;20442;-66
2023/05/28 08:23:34;;;;;;;3.97;2.42;;;26.30;43.80;;;;;;5075292;28;20480;-67
2023/05/28 08:26:04;;;;;;;2.50;2.28;;;26.30;43.10;;;;;;5077841;28;20049;-66
2023/05/28 08:28:31;;;;;;;;;;;26.30;42.80;;;;;;5069790;28;20041;-67
2023/05/28 08:31:01;;;;;;;3.38;2.20;;;26.30;42.60;;;;;;5068454;28;19920;-67
2023/05/28 08:33:28;;;;;;;2.80;1.58;;;26.30;42.50;;;;;;5072271;28;20047;-67
2023/05/28 08:35:55;;;;;;;2.60;1.65;;;26.30;42.40;;;;;;5074088;28;20474;-66
2023/05/28 08:38:22;;;;;;;3.80;2.08;;;26.30;42.40;;;;;;5072443;28;20044;-67
2023/05/28 08:40:54;;;;;;;4.68;2.63;;;26.30;42.30;;;;;;5079557;28;20044;-67
2023/05/28 08:43:22;;;;;;;3.75;1.95;;;26.30;42.40;;;;;;5087773;28;20047;-66
2023/05/28 08:45:52;;;;;;;4.50;2.42;;;26.30;42.30;;;;;;5072996;28;20127;-66
2023/05/28 08:48:22;;;;;;;3.47;2.30;;;26.30;42.30;;;;;;5074397;28;20087;-66
2023/05/28 08:50:53;;;;;;;2.35;2.00;;;26.30;42.30;;;;;;5074741;28;20051;-66
2023/05/28 08:53:22;;;;;;;2.75;1.98;;;26.30;42.20;;;;;;5074355;28;20079;-67
2023/05/28 08:55:51;;;;;;;2.95;2.28;;;26.30;42.20;;;;;;5073936;28;20451;-67
2023/05/28 08:58:20;;;;;;;3.80;2.28;;;26.30;42.20;;;;;;5074054;28;20056;-67
2023/05/28 09:00:48;;;;;;;2.38;2.05;;;26.30;42.10;;;;;;5073907;28;20162;-67
2023/05/28 09:03:15;;;;;;;3.38;2.28;;;26.30;42.10;;;;;;5072632;28;20094;-67
2023/05/28 09:05:42;;;;;;;1.75;1.63;;;26.30;42.10;;;;;;5072619;28;20492;-66
2023/05/28 09:08:10;;;;;;;2.63;1.98;;;26.30;42.10;;;;;;5074029;28;20561;-67
2023/05/28 09:10:40;;;;;;;4.88;2.10;;;26.30;42.10;;;;;;5074225;28;20400;-66
2023/05/28 09:13:07;;;;;;;2.83;1.93;;;26.40;42.00;;;;;;5073781;28;20091;-66
2023/05/28 09:15:35;;;;;;;2.58;2.20;;;26.40;42.00;;;;;;5073599;28;20455;-66
2023/05/28 09:18:04;;;;;;;3.75;2.60;;;26.30;42.00;;;;;;5072819;28;20041;-67
2023/05/28 09:20:32;;;;;;;3.17;2.50;;;26.40;42.00;;;;;;5073595;28;20064;-67
2023/05/28 09:23:02;;;;;;;2.13;1.80;;;26.40;42.00;;;;;;5073213;28;20040;-67
2023/05/28 09:25:34;;;;;;;3.05;2.10;;;26.40;42.00;;;;;;5073613;28;20044;-66
2023/05/28 09:28:03;;;;;;;3.15;2.13;;;26.40;42.00;;;;;;5073919;28;20060;-66
2023/05/28 09:30:35;;;;;;;3.00;2.13;;;26.40;41.90;;;;;;5072419;28;20161;-67
2023/05/28 09:33:05;;;;;;;3.90;2.08;;;26.40;41.90;;;;;;5079786;28;20048;-66
2023/05/28 09:35:33;;;;;;;2.93;2.07;;;26.40;41.90;;;;;;5072104;28;20047;-67
2023/05/28 09:38:11;;;;;;;2.55;2.30;;;26.40;41.90;;;;;;5075691;28;20114;-67
2023/05/28 09:40:42;;;;;;;5.00;2.40;;;26.40;41.90;;;;;;5062241;28;20522;-67
2023/05/28 09:43:10;;;;;;;2.90;2.00;;;26.40;41.90;;;;;;5057262;28;20048;-67
2023/05/28 09:45:38;;;;;;;3.42;2.55;;;26.40;41.80;;;;;;5053287;28;20470;-66
2023/05/28 09:48:05;;;;;;;2.88;2.42;;;26.40;41.80;;;;;;5053225;28;20049;-67
2023/05/28 09:50:32;;;;;;;2.83;2.15;;;26.40;41.80;;;;;;5053634;28;20053;-67
2023/05/28 09:53:03;;;;;;;2.95;2.25;;;26.40;41.80;;;;;;5053131;28;20128;-67
2023/05/28 09:55:32;;;;;;;2.58;2.10;;;26.40;41.80;;;;;;5053334;28;20087;-66
2023/05/28 09:58:04;;;;;;;3.25;1.88;;;26.50;41.80;;;;;;5053090;28;20122;-67
2023/05/28 10:00:52;;;;;;;3.10;2.38;;;26.50;41.80;;;;;;5053005;28;20049;-67
2023/05/28 10:03:25;;;;;;;2.78;2.33;;;26.50;41.80;;;;;;5051898;28;20053;-67
2023/05/28 10:05:59;;;;;;;2.58;2.30;;;26.50;41.80;;;;;;5053082;28;20080;-67
2023/05/28 10:08:27;;;;;;;5.55;2.53;;;26.50;41.80;;;;;;5053594;28;20049;-67
2023/05/28 10:10:55;;;;;;;2.60;1.90;;;26.50;41.80;;;;;;5054709;28;20044;-67
2023/05/28 10:13:22;;;;;;;2.28;1.95;;;26.50;41.70;;;;;;5073167;28;20049;-67
2023/05/28 10:15:50;;;;;;;3.45;2.42;;;26.50;41.80;;;;;;5073399;28;20102;-67
2023/05/28 10:18:20;;;;;;;3.58;2.05;;;26.50;41.80;;;;;;5072916;28;20492;-67
2023/05/28 10:20:47;;;;;;;3.20;2.40;;;26.50;41.80;;;;;;5072842;28;20131;-67
2023/05/28 10:23:15;;;;;;;3.65;2.30;;;26.50;41.70;;;;;;5073060;28;20049;-67
2023/05/28 10:25:42;;;;;;;3.80;2.25;;;26.50;41.70;;;;;;5073007;28;20041;-67
2023/05/28 10:28:15;;;;;;;4.13;2.25;;;26.50;41.70;;;;;;5072796;28;20577;-66
2023/05/28 10:30:42;;;;;;;3.15;2.03;;;26.50;41.60;;;;;;5073286;28;20052;-66
2023/05/28 10:33:16;;;;;;;2.72;1.85;;;26.50;41.60;;;;;;5073192;28;20123;-67
2023/05/28 10:36:00;;;;;;;3.33;2.70;;;26.60;41.70;;;;;;5072783;28;20455;-67
2023/05/28 10:38:30;;;;;;;3.30;2.45;;;26.60;41.70;;;;;;5072762;28;20554;-66
2023/05/28 10:41:01;;;;;;;3.28;2.17;;;26.60;41.70;;;;;;5072667;28;20557;-67
2023/05/28 10:43:42;;;;;;;3.70;2.22;;;26.60;41.70;;;;;;5072894;28;20052;-67
2023/05/28 10:46:11;;;;;;;2.35;2.15;;;26.60;41.70;;;;;;5064580;28;20045;-67
2023/05/28 10:49:03;;;;;;;3.97;2.72;;;26.60;41.70;;;;;;5052950;28;20087;-67
2023/05/28 10:51:57;;;;;;;3.35;2.38;;;26.60;41.70;;;;;;5052658;28;20408;-66
2023/05/28 10:54:42;;;;;;;6.43;2.60;;;26.60;41.60;;;;;;5068171;28;20125;-66
2023/05/28 10:57:19;;;;;;;3.40;2.97;;;26.60;41.60;;;;;;5076398;28;20052;-67
2023/05/28 11:00:00;;;;;;;2.55;2.35;;;26.60;41.60;;;;;;5076284;28;20088;-67
2023/05/28 11:02:32;;;;;;;3.88;2.25;;;26.60;41.70;;;;;;5076415;28;20489;-66
2023/05/28 11:05:01;;;;;;;3.28;2.53;;;26.60;41.70;;;;;;5076263;28;20054;-67
2023/05/28 11:07:40;;;;;;;4.32;2.30;;;26.60;41.60;;;;;;5076505;28;20044;-67
2023/05/28 11:10:10;;;;;;;2.13;1.98;;;26.60;41.60;;;;;;5076429;28;20484;-67
2023/05/28 11:12:39;;;;;;;2.50;2.20;;;26.60;41.60;;;;;;5074921;28;20131;-68
2023/05/28 11:15:08;;;;;;;4.38;2.45;;;26.60;41.60;;;;;;5076115;28;20484;-66
2023/05/28 11:17:38;;;;;;;2.80;2.20;;;26.60;41.60;;;;;;5075947;28;20048;-67
2023/05/28 11:20:14;;;;;;;6.68;1.92;;;26.60;41.50;;;;;;5076038;28;20430;-67
2023/05/28 11:22:41;;;;;;;4.28;2.38;;;26.60;41.50;;;;;;5076156;28;20049;-67
2023/05/28 11:25:09;;;;;;;3.22;2.10;;;26.70;41.50;;;;;;5076011;28;20052;-66
2023/05/28 11:27:37;;;;;;;2.30;2.10;;;26.60;41.40;;;;;;5076148;28;20080;-66
2023/05/28 11:30:12;;;;;;;3.95;2.47;;;26.70;41.50;;;;;;5075538;28;20083;-67
2023/05/28 11:32:40;;;;;;;2.95;2.28;;;26.70;41.50;;;;;;5072203;28;20040;-66
2023/05/28 11:35:13;;;;;;;3.83;2.20;;;26.70;41.40;;;;;;5075507;28;20056;-67
2023/05/28 11:37:42;;;;;;;3.35;2.45;;;26.70;41.40;;;;;;5071181;28;20075;-66
2023/05/28 11:40:12;;;;;;;3.53;2.33;;;26.70;41.40;;;;;;5075451;28;20080;-67
2023/05/28 11:42:43;;;;;;;3.20;2.67;;;26.70;41.30;;;;;;5074484;28;20044;-66
2023/05/28 11:45:11;;;;;;;3.50;2.88;;;26.70;41.30;;;;;;5073762;28;20052;-67
2023/05/28 11:47:39;;;;;;;2.38;2.15;;;26.70;41.30;;;;;;5073390;28;20040;-66
2023/05/28 11:50:12;;;;;;;3.95;3.30;;;26.70;41.20;;;;;;5072968;28;20052;-67
2023/05/28 11:52:40;;;;;;;3.70;2.63;;;26.70;41.20;;;;;;5073434;28;20044;-66
2023/05/28 11:55:09;;;;;;;3.63;2.53;;;26.70;41.20;;;;;;5083719;28;20052;-67
2023/05/28 11:57:43;;;;;;;4.03;2.90;;;26.70;41.10;;;;;;5066567;28;20127;-66
2023/05/28 12:00:16;;;;;;;3.65;2.30;;;26.70;41.10;;;;;;5072169;28;20045;-67
2023/05/28 12:02:47;;;;;;;3.40;2.63;;;26.70;41.10;;;;;;5075153;28;20040;-67
2023/05/28 12:05:16;;;;;;;2.88;2.30;;;26.80;41.10;;;;;;5075127;28;20049;-67
2023/05/28 12:07:52;;;;;;;8.13;2.55;;;26.80;41.10;;;;;;5075251;28;20052;-66
2023/05/28 12:10:21;;;;;;;3.75;2.17;;;26.80;41.10;;;;;;5074200;28;20048;-67
2023/05/28 12:12:55;;;;;;;3.13;2.27;;;26.80;41.00;;;;;;5075442;28;20459;-67
2023/05/28 12:15:24;;;;;;;2.38;1.95;;;26.80;41.00;;;;;;5074979;28;20550;-66
2023/05/28 12:18:00;;;;;;;3.83;2.33;;;26.80;41.00;;;;;;5074985;28;20488;-67
2023/05/28 12:20:32;;;;;;;3.90;3.03;;;26.80;40.90;;;;;;5075256;28;20049;-66
2023/05/28 12:23:11;;;;;;;3.17;2.30;;;26.80;40.90;;;;;;5075091;28;20051;-66
2023/05/28 12:25:52;;;;;;;3.55;2.55;;;26.80;40.80;;;;;;5074588;28;20048;-66
2023/05/28 12:28:21;;;;;;;2.40;2.20;;;26.90;40.80;;;;;;5075049;28;20045;-66
2023/05/28 12:30:50;;;;;;;2.67;2.47;;;26.80;40.70;;;;;;5075059;28;20443;-66
2023/05/28 12:33:18;;;;;;;3.65;2.35;;;26.80;40.70;;;;;;5075049;28;20053;-66
2023/05/28 12:35:46;;;;;;;3.33;2.67;;;26.80;40.70;;;;;;5074591;28;20139;-66
2023/05/28 12:38:14;;;;;;;2.63;2.35;;;26.80;40.60;;;;;;5074871;28;20151;-66
2023/05/28 12:40:41;;;;;;;3.00;2.55;;;26.80;40.60;;;;;;5074118;28;20071;-66
2023/05/28 12:43:08;;;;;;;4.22;2.92;;;26.90;40.60;;;;;;5074717;28;20052;-67
2023/05/28 12:45:36;;;;;;;3.50;2.70;;;26.90;40.40;;;;;;5074447;28;20102;-66
2023/05/28 12:48:03;;;;;;;4.85;2.50;;;26.90;40.40;;;;;;5074651;28;20045;-67
2023/05/28 12:50:31;;;;;;;2.47;2.28;;;26.90;40.20;;;;;;5074414;28;20048;-66
2023/05/28 12:52:58;;;;;;;5.20;2.85;;;27.00;40.20;;;;;;5074489;28;20049;-67
2023/05/28 12:55:25;;;;;;;3.40;2.42;;;27.00;40.20;;;;;;5073075;28;20082;-66
2023/05/28 12:57:53;;;;;;;5.05;2.50;;;27.00;40.10;;;;;;5074481;28;20048;-66